sensor_id;sensor_type;location;lat;lon;timestamp;P1;durP1;ratioP1;P2;durP2;ratioP2
13487;SDS011;6816;48.506;9.050;2022-10-19T00:01:19;10.90;;;4.07;;
13487;SDS011;6816;48.506;9.050;2022-10-19T00:04:21;7.07;;;4.30;;
13487;SDS011;6816;48.506;9.050;2022-10-19T00:07:21;9.97;;;4.20;;
13487;SDS011;6816;48.506;9.050;2022-10-19T00:10:22;7.40;;;4.23;;
13487;SDS011;6816;48.506;9.050;2022-10-19T00:13:22;8.97;;;6.13;;
13487;SDS011;6816;48.506;9.050;2022-10-19T00:16:23;9.50;;;5.43;;
13487;SDS011;6816;48.506;9.050;2022-10-19T00:19:26;7.60;;;5.67;;
13487;SDS011;6816;48.506;9.050;2022-10-19T00:22:27;9.23;;;5.53;;
13487;SDS011;6816;48.506;9.050;2022-10-19T00:25:28;8.00;;;5.57;;
13487;SDS011;6816;48.506;9.050;2022-10-19T00:28:29;6.40;;;5.00;;
13487;SDS011;6816;48.506;9.050;2022-10-19T00:31:30;7.50;;;5.60;;
13487;SDS011;6816;48.506;9.050;2022-10-19T00:34:30;6.00;;;5.20;;
13487;SDS011;6816;48.506;9.050;2022-10-19T00:37:31;11.80;;;6.27;;
13487;SDS011;6816;48.506;9.050;2022-10-19T00:40:38;6.93;;;5.57;;
13487;SDS011;6816;48.506;9.050;2022-10-19T00:43:53;7.87;;;4.73;;
13487;SDS011;6816;48.506;9.050;2022-10-19T00:46:56;7.13;;;4.80;;
13487;SDS011;6816;48.506;9.050;2022-10-19T00:50:00;9.90;;;5.40;;
13487;SDS011;6816;48.506;9.050;2022-10-19T00:53:01;6.03;;;4.50;;
13487;SDS011;6816;48.506;9.050;2022-10-19T00:56:02;8.23;;;5.00;;
13487;SDS011;6816;48.506;9.050;2022-10-19T00:59:08;4.63;;;4.10;;
13487;SDS011;6816;48.506;9.050;2022-10-19T01:02:11;4.37;;;3.93;;
13487;SDS011;6816;48.506;9.050;2022-10-19T01:05:11;9.53;;;4.47;;
13487;SDS011;6816;48.506;9.050;2022-10-19T01:08:13;7.53;;;4.53;;
13487;SDS011;6816;48.506;9.050;2022-10-19T01:21:02;9.60;;;5.47;;
13487;SDS011;6816;48.506;9.050;2022-10-19T01:24:29;10.97;;;5.47;;
13487;SDS011;6816;48.506;9.050;2022-10-19T01:30:53;8.07;;;5.00;;
13487;SDS011;6816;48.506;9.050;2022-10-19T01:34:09;8.80;;;5.33;;
13487;SDS011;6816;48.506;9.050;2022-10-19T01:37:39;7.00;;;4.83;;
13487;SDS011;6816;48.506;9.050;2022-10-19T01:47:25;7.53;;;5.23;;
13487;SDS011;6816;48.506;9.050;2022-10-19T01:50:30;12.37;;;5.60;;
13487;SDS011;6816;48.506;9.050;2022-10-19T01:53:39;6.43;;;5.53;;
13487;SDS011;6816;48.506;9.050;2022-10-19T01:56:43;6.30;;;5.23;;
13487;SDS011;6816;48.506;9.050;2022-10-19T01:59:46;8.50;;;5.30;;
13487;SDS011;6816;48.506;9.050;2022-10-19T02:02:49;8.63;;;5.70;;
13487;SDS011;6816;48.506;9.050;2022-10-19T02:05:52;6.53;;;5.50;;
13487;SDS011;6816;48.506;9.050;2022-10-19T02:08:54;11.90;;;5.53;;
13487;SDS011;6816;48.506;9.050;2022-10-19T02:11:55;6.53;;;5.50;;
13487;SDS011;6816;48.506;9.050;2022-10-19T02:14:59;7.77;;;5.77;;
13487;SDS011;6816;48.506;9.050;2022-10-19T02:18:04;7.47;;;5.20;;
13487;SDS011;6816;48.506;9.050;2022-10-19T02:21:06;9.37;;;4.90;;
13487;SDS011;6816;48.506;9.050;2022-10-19T02:24:08;7.03;;;5.57;;
13487;SDS011;6816;48.506;9.050;2022-10-19T02:27:08;5.60;;;5.10;;
13487;SDS011;6816;48.506;9.050;2022-10-19T02:30:11;7.77;;;4.50;;
13487;SDS011;6816;48.506;9.050;2022-10-19T02:33:13;6.00;;;3.90;;
13487;SDS011;6816;48.506;9.050;2022-10-19T02:36:14;10.97;;;4.60;;
13487;SDS011;6816;48.506;9.050;2022-10-19T02:39:14;4.97;;;4.13;;
13487;SDS011;6816;48.506;9.050;2022-10-19T02:42:19;6.03;;;4.17;;
13487;SDS011;6816;48.506;9.050;2022-10-19T02:45:30;5.47;;;4.40;;
13487;SDS011;6816;48.506;9.050;2022-10-19T02:48:34;7.30;;;4.13;;
13487;SDS011;6816;48.506;9.050;2022-10-19T02:51:53;8.20;;;4.63;;
13487;SDS011;6816;48.506;9.050;2022-10-19T02:54:55;4.73;;;4.10;;
13487;SDS011;6816;48.506;9.050;2022-10-19T02:57:55;7.47;;;4.30;;
13487;SDS011;6816;48.506;9.050;2022-10-19T03:00:56;5.43;;;4.77;;
13487;SDS011;6816;48.506;9.050;2022-10-19T03:03:56;9.60;;;4.00;;
13487;SDS011;6816;48.506;9.050;2022-10-19T03:06:57;7.47;;;4.73;;
13487;SDS011;6816;48.506;9.050;2022-10-19T03:09:58;6.00;;;4.13;;
13487;SDS011;6816;48.506;9.050;2022-10-19T03:12:58;5.30;;;4.07;;
13487;SDS011;6816;48.506;9.050;2022-10-19T03:16:09;5.87;;;4.27;;
13487;SDS011;6816;48.506;9.050;2022-10-19T03:19:11;4.83;;;3.77;;
13487;SDS011;6816;48.506;9.050;2022-10-19T03:22:12;4.70;;;3.90;;
13487;SDS011;6816;48.506;9.050;2022-10-19T03:25:13;4.50;;;3.87;;
13487;SDS011;6816;48.506;9.050;2022-10-19T03:28:14;4.70;;;4.20;;
13487;SDS011;6816;48.506;9.050;2022-10-19T03:31:15;4.47;;;3.57;;
13487;SDS011;6816;48.506;9.050;2022-10-19T03:34:15;5.27;;;4.57;;
13487;SDS011;6816;48.506;9.050;2022-10-19T03:37:16;6.07;;;4.93;;
13487;SDS011;6816;48.506;9.050;2022-10-19T03:40:17;5.37;;;4.70;;
13487;SDS011;6816;48.506;9.050;2022-10-19T03:43:17;8.73;;;6.20;;
13487;SDS011;6816;48.506;9.050;2022-10-19T03:46:18;10.20;;;5.70;;
13487;SDS011;6816;48.506;9.050;2022-10-19T03:49:19;9.33;;;6.33;;
13487;SDS011;6816;48.506;9.050;2022-10-19T03:52:20;8.53;;;5.53;;
13487;SDS011;6816;48.506;9.050;2022-10-19T03:55:20;9.70;;;5.70;;
13487;SDS011;6816;48.506;9.050;2022-10-19T03:58:21;7.27;;;5.47;;
13487;SDS011;6816;48.506;9.050;2022-10-19T04:01:23;9.50;;;5.37;;
13487;SDS011;6816;48.506;9.050;2022-10-19T04:04:35;7.43;;;5.50;;
13487;SDS011;6816;48.506;9.050;2022-10-19T04:07:36;8.97;;;5.47;;
13487;SDS011;6816;48.506;9.050;2022-10-19T04:10:36;6.97;;;5.03;;
13487;SDS011;6816;48.506;9.050;2022-10-19T04:13:37;7.17;;;5.53;;
13487;SDS011;6816;48.506;9.050;2022-10-19T04:16:38;8.73;;;6.03;;
13487;SDS011;6816;48.506;9.050;2022-10-19T04:19:39;10.50;;;6.40;;
13487;SDS011;6816;48.506;9.050;2022-10-19T04:22:39;9.00;;;5.93;;
13487;SDS011;6816;48.506;9.050;2022-10-19T04:25:40;13.27;;;6.60;;
13487;SDS011;6816;48.506;9.050;2022-10-19T04:28:40;10.27;;;6.10;;
13487;SDS011;6816;48.506;9.050;2022-10-19T04:31:41;12.03;;;6.37;;
13487;SDS011;6816;48.506;9.050;2022-10-19T04:34:42;11.63;;;6.57;;
13487;SDS011;6816;48.506;9.050;2022-10-19T04:37:43;11.43;;;6.27;;
13487;SDS011;6816;48.506;9.050;2022-10-19T04:40:43;13.20;;;6.60;;
13487;SDS011;6816;48.506;9.050;2022-10-19T04:43:44;18.63;;;7.47;;
13487;SDS011;6816;48.506;9.050;2022-10-19T04:46:45;13.30;;;7.37;;
13487;SDS011;6816;48.506;9.050;2022-10-19T04:49:46;11.67;;;6.63;;
13487;SDS011;6816;48.506;9.050;2022-10-19T04:52:47;11.13;;;6.93;;
13487;SDS011;6816;48.506;9.050;2022-10-19T04:55:47;10.77;;;6.47;;
13487;SDS011;6816;48.506;9.050;2022-10-19T04:58:48;11.60;;;7.23;;
13487;SDS011;6816;48.506;9.050;2022-10-19T05:01:49;10.53;;;6.90;;
13487;SDS011;6816;48.506;9.050;2022-10-19T05:04:49;12.37;;;6.43;;
13487;SDS011;6816;48.506;9.050;2022-10-19T05:07:50;8.97;;;6.50;;
13487;SDS011;6816;48.506;9.050;2022-10-19T05:10:51;9.80;;;7.03;;
13487;SDS011;6816;48.506;9.050;2022-10-19T05:13:51;10.90;;;6.70;;
13487;SDS011;6816;48.506;9.050;2022-10-19T05:16:52;14.17;;;6.83;;
13487;SDS011;6816;48.506;9.050;2022-10-19T05:19:52;8.13;;;6.53;;
13487;SDS011;6816;48.506;9.050;2022-10-19T05:22:53;11.00;;;7.13;;
13487;SDS011;6816;48.506;9.050;2022-10-19T05:26:01;10.07;;;6.83;;
13487;SDS011;6816;48.506;9.050;2022-10-19T05:29:10;9.27;;;6.77;;
13487;SDS011;6816;48.506;9.050;2022-10-19T05:32:11;10.73;;;6.77;;
13487;SDS011;6816;48.506;9.050;2022-10-19T05:35:12;9.77;;;6.57;;
13487;SDS011;6816;48.506;9.050;2022-10-19T05:38:13;12.83;;;7.00;;
13487;SDS011;6816;48.506;9.050;2022-10-19T05:41:14;10.07;;;6.50;;
13487;SDS011;6816;48.506;9.050;2022-10-19T05:44:16;9.40;;;6.20;;
13487;SDS011;6816;48.506;9.050;2022-10-19T05:47:18;14.57;;;6.07;;
13487;SDS011;6816;48.506;9.050;2022-10-19T05:50:19;10.07;;;6.80;;
13487;SDS011;6816;48.506;9.050;2022-10-19T05:53:20;11.20;;;6.37;;
13487;SDS011;6816;48.506;9.050;2022-10-19T05:56:21;11.47;;;6.87;;
13487;SDS011;6816;48.506;9.050;2022-10-19T05:59:23;8.67;;;5.80;;
13487;SDS011;6816;48.506;9.050;2022-10-19T06:02:24;11.17;;;6.60;;
13487;SDS011;6816;48.506;9.050;2022-10-19T06:05:25;9.33;;;6.13;;
13487;SDS011;6816;48.506;9.050;2022-10-19T06:08:25;10.30;;;6.73;;
13487;SDS011;6816;48.506;9.050;2022-10-19T06:11:27;13.17;;;7.03;;
13487;SDS011;6816;48.506;9.050;2022-10-19T06:14:29;12.67;;;6.00;;
13487;SDS011;6816;48.506;9.050;2022-10-19T06:17:29;9.47;;;6.27;;
13487;SDS011;6816;48.506;9.050;2022-10-19T06:20:32;10.23;;;6.90;;
13487;SDS011;6816;48.506;9.050;2022-10-19T06:23:35;11.63;;;6.90;;
13487;SDS011;6816;48.506;9.050;2022-10-19T06:26:36;12.87;;;6.33;;
13487;SDS011;6816;48.506;9.050;2022-10-19T06:29:37;10.87;;;7.17;;
13487;SDS011;6816;48.506;9.050;2022-10-19T06:32:37;11.87;;;6.87;;
13487;SDS011;6816;48.506;9.050;2022-10-19T06:35:38;13.87;;;7.10;;
13487;SDS011;6816;48.506;9.050;2022-10-19T06:38:41;13.37;;;7.17;;
13487;SDS011;6816;48.506;9.050;2022-10-19T06:41:43;13.33;;;7.33;;
13487;SDS011;6816;48.506;9.050;2022-10-19T06:44:43;15.97;;;7.40;;
13487;SDS011;6816;48.506;9.050;2022-10-19T06:47:44;11.90;;;6.87;;
13487;SDS011;6816;48.506;9.050;2022-10-19T06:50:45;11.13;;;7.53;;
13487;SDS011;6816;48.506;9.050;2022-10-19T06:53:45;12.50;;;7.07;;
13487;SDS011;6816;48.506;9.050;2022-10-19T06:56:46;11.23;;;7.00;;
13487;SDS011;6816;48.506;9.050;2022-10-19T06:59:47;11.97;;;7.57;;
13487;SDS011;6816;48.506;9.050;2022-10-19T07:02:47;12.50;;;7.60;;
13487;SDS011;6816;48.506;9.050;2022-10-19T07:05:52;12.20;;;7.63;;
13487;SDS011;6816;48.506;9.050;2022-10-19T07:08:56;11.27;;;7.07;;
13487;SDS011;6816;48.506;9.050;2022-10-19T07:11:57;14.77;;;8.07;;
13487;SDS011;6816;48.506;9.050;2022-10-19T07:14:58;9.90;;;6.67;;
13487;SDS011;6816;48.506;9.050;2022-10-19T07:17:58;10.97;;;6.30;;
13487;SDS011;6816;48.506;9.050;2022-10-19T07:21:00;8.20;;;6.27;;
13487;SDS011;6816;48.506;9.050;2022-10-19T07:24:03;10.07;;;5.97;;
13487;SDS011;6816;48.506;9.050;2022-10-19T07:27:04;7.70;;;5.70;;
13487;SDS011;6816;48.506;9.050;2022-10-19T07:30:04;8.70;;;6.10;;
13487;SDS011;6816;48.506;9.050;2022-10-19T07:33:06;6.83;;;5.60;;
13487;SDS011;6816;48.506;9.050;2022-10-19T07:36:07;7.70;;;5.83;;
13487;SDS011;6816;48.506;9.050;2022-10-19T07:39:09;6.73;;;5.27;;
13487;SDS011;6816;48.506;9.050;2022-10-19T07:42:11;6.50;;;5.10;;
13487;SDS011;6816;48.506;9.050;2022-10-19T07:45:12;7.10;;;5.47;;
13487;SDS011;6816;48.506;9.050;2022-10-19T07:48:12;7.63;;;5.73;;
13487;SDS011;6816;48.506;9.050;2022-10-19T07:51:14;7.33;;;5.60;;
13487;SDS011;6816;48.506;9.050;2022-10-19T07:54:16;7.60;;;5.53;;
13487;SDS011;6816;48.506;9.050;2022-10-19T07:57:16;6.13;;;5.03;;
13487;SDS011;6816;48.506;9.050;2022-10-19T08:00:17;6.37;;;5.00;;
13487;SDS011;6816;48.506;9.050;2022-10-19T08:03:17;7.40;;;5.30;;
13487;SDS011;6816;48.506;9.050;2022-10-19T08:06:18;7.77;;;5.70;;
13487;SDS011;6816;48.506;9.050;2022-10-19T08:09:19;5.53;;;4.97;;
13487;SDS011;6816;48.506;9.050;2022-10-19T08:12:20;5.87;;;5.00;;
13487;SDS011;6816;48.506;9.050;2022-10-19T08:15:20;6.07;;;5.33;;
13487;SDS011;6816;48.506;9.050;2022-10-19T08:18:21;8.50;;;4.90;;
13487;SDS011;6816;48.506;9.050;2022-10-19T08:21:22;5.07;;;4.60;;
13487;SDS011;6816;48.506;9.050;2022-10-19T08:24:25;5.53;;;4.93;;
13487;SDS011;6816;48.506;9.050;2022-10-19T08:27:25;5.63;;;5.03;;
13487;SDS011;6816;48.506;9.050;2022-10-19T08:30:26;6.47;;;5.73;;
13487;SDS011;6816;48.506;9.050;2022-10-19T08:33:27;6.47;;;5.23;;
13487;SDS011;6816;48.506;9.050;2022-10-19T08:36:27;5.67;;;5.07;;
13487;SDS011;6816;48.506;9.050;2022-10-19T08:39:30;5.83;;;4.90;;
13487;SDS011;6816;48.506;9.050;2022-10-19T08:42:36;7.90;;;5.37;;
13487;SDS011;6816;48.506;9.050;2022-10-19T08:49:13;5.87;;;5.27;;
13487;SDS011;6816;48.506;9.050;2022-10-19T08:52:23;7.17;;;5.40;;
13487;SDS011;6816;48.506;9.050;2022-10-19T08:55:40;7.03;;;5.20;;
13487;SDS011;6816;48.506;9.050;2022-10-19T08:59:19;6.60;;;5.20;;
13487;SDS011;6816;48.506;9.050;2022-10-19T09:06:04;6.67;;;5.17;;
13487;SDS011;6816;48.506;9.050;2022-10-19T09:09:19;6.27;;;5.00;;
13487;SDS011;6816;48.506;9.050;2022-10-19T09:12:23;8.37;;;5.10;;
13487;SDS011;6816;48.506;9.050;2022-10-19T09:15:39;5.70;;;5.10;;
13487;SDS011;6816;48.506;9.050;2022-10-19T09:18:42;6.10;;;5.35;;
13487;SDS011;6816;48.506;9.050;2022-10-19T09:21:54;6.00;;;5.40;;
13487;SDS011;6816;48.506;9.050;2022-10-19T09:25:00;6.28;;;5.28;;
13487;SDS011;6816;48.506;9.050;2022-10-19T09:28:14;5.65;;;5.05;;
13487;SDS011;6816;48.506;9.050;2022-10-19T09:34:32;5.80;;;4.97;;
13487;SDS011;6816;48.506;9.050;2022-10-19T09:37:36;5.57;;;4.03;;
13487;SDS011;6816;48.506;9.050;2022-10-19T09:40:41;4.28;;;3.67;;
13487;SDS011;6816;48.506;9.050;2022-10-19T09:43:44;4.30;;;3.90;;
13487;SDS011;6816;48.506;9.050;2022-10-19T09:47:10;3.63;;;3.30;;
13487;SDS011;6816;48.506;9.050;2022-10-19T09:50:24;5.13;;;3.63;;
13487;SDS011;6816;48.506;9.050;2022-10-19T09:53:26;3.90;;;3.33;;
13487;SDS011;6816;48.506;9.050;2022-10-19T09:56:28;3.50;;;3.20;;
13487;SDS011;6816;48.506;9.050;2022-10-19T09:59:32;3.65;;;3.05;;
13487;SDS011;6816;48.506;9.050;2022-10-19T10:02:35;3.17;;;2.88;;
13487;SDS011;6816;48.506;9.050;2022-10-19T10:05:36;3.60;;;2.90;;
13487;SDS011;6816;48.506;9.050;2022-10-19T10:08:48;3.25;;;2.95;;
13487;SDS011;6816;48.506;9.050;2022-10-19T10:11:57;3.10;;;2.60;;
13487;SDS011;6816;48.506;9.050;2022-10-19T10:15:02;3.30;;;2.80;;
13487;SDS011;6816;48.506;9.050;2022-10-19T10:18:05;3.10;;;2.38;;
13487;SDS011;6816;48.506;9.050;2022-10-19T10:21:21;2.92;;;2.35;;
13487;SDS011;6816;48.506;9.050;2022-10-19T10:24:31;2.50;;;2.28;;
13487;SDS011;6816;48.506;9.050;2022-10-19T10:27:34;3.88;;;2.20;;
13487;SDS011;6816;48.506;9.050;2022-10-19T10:30:36;2.70;;;2.50;;
13487;SDS011;6816;48.506;9.050;2022-10-19T10:33:36;3.15;;;2.30;;
13487;SDS011;6816;48.506;9.050;2022-10-19T10:36:37;2.67;;;2.45;;
13487;SDS011;6816;48.506;9.050;2022-10-19T10:39:39;2.95;;;2.65;;
13487;SDS011;6816;48.506;9.050;2022-10-19T10:42:42;3.25;;;2.50;;
13487;SDS011;6816;48.506;9.050;2022-10-19T10:45:45;2.45;;;2.22;;
13487;SDS011;6816;48.506;9.050;2022-10-19T10:48:56;2.88;;;2.60;;
13487;SDS011;6816;48.506;9.050;2022-10-19T10:52:14;2.92;;;2.63;;
13487;SDS011;6816;48.506;9.050;2022-10-19T10:55:16;3.13;;;2.50;;
13487;SDS011;6816;48.506;9.050;2022-10-19T10:58:18;3.38;;;3.08;;
13487;SDS011;6816;48.506;9.050;2022-10-19T11:01:39;3.50;;;3.10;;
13487;SDS011;6816;48.506;9.050;2022-10-19T11:04:45;4.65;;;3.35;;
13487;SDS011;6816;48.506;9.050;2022-10-19T11:08:38;5.72;;;3.40;;
13487;SDS011;6816;48.506;9.050;2022-10-19T11:11:21;3.40;;;3.00;;
13487;SDS011;6816;48.506;9.050;2022-10-19T11:14:47;4.28;;;3.78;;
13487;SDS011;6816;48.506;9.050;2022-10-19T11:17:54;6.07;;;4.68;;
13487;SDS011;6816;48.506;9.050;2022-10-19T11:30:28;6.93;;;4.43;;
13487;SDS011;6816;48.506;9.050;2022-10-19T11:33:42;5.28;;;4.07;;
13487;SDS011;6816;48.506;9.050;2022-10-19T11:40:25;3.05;;;2.78;;
13487;SDS011;6816;48.506;9.050;2022-10-19T11:47:12;2.30;;;2.10;;
13487;SDS011;6816;48.506;9.050;2022-10-19T11:56:56;1.88;;;1.77;;
13487;SDS011;6816;48.506;9.050;2022-10-19T12:06:29;3.15;;;1.90;;
13487;SDS011;6816;48.506;9.050;2022-10-19T12:09:41;1.98;;;1.88;;
13487;SDS011;6816;48.506;9.050;2022-10-19T12:12:54;2.38;;;1.77;;
13487;SDS011;6816;48.506;9.050;2022-10-19T12:16:01;2.53;;;2.00;;
13487;SDS011;6816;48.506;9.050;2022-10-19T12:19:04;2.78;;;1.80;;
13487;SDS011;6816;48.506;9.050;2022-10-19T12:22:15;2.10;;;1.90;;
13487;SDS011;6816;48.506;9.050;2022-10-19T12:25:22;2.33;;;2.13;;
13487;SDS011;6816;48.506;9.050;2022-10-19T12:28:28;2.58;;;2.38;;
13487;SDS011;6816;48.506;9.050;2022-10-19T12:31:31;2.30;;;2.10;;
13487;SDS011;6816;48.506;9.050;2022-10-19T12:41:32;2.47;;;2.28;;
13487;SDS011;6816;48.506;9.050;2022-10-19T12:51:23;2.42;;;2.17;;
13487;SDS011;6816;48.506;9.050;2022-10-19T12:54:25;2.50;;;2.20;;
13487;SDS011;6816;48.506;9.050;2022-10-19T12:57:28;2.55;;;2.35;;
13487;SDS011;6816;48.506;9.050;2022-10-19T13:00:30;3.88;;;2.42;;
13487;SDS011;6816;48.506;9.050;2022-10-19T13:03:37;2.65;;;2.45;;
13487;SDS011;6816;48.506;9.050;2022-10-19T13:06:41;3.10;;;2.80;;
13487;SDS011;6816;48.506;9.050;2022-10-19T13:09:45;2.72;;;2.53;;
13487;SDS011;6816;48.506;9.050;2022-10-19T13:12:47;3.50;;;2.88;;
13487;SDS011;6816;48.506;9.050;2022-10-19T13:15:49;3.30;;;2.28;;
13487;SDS011;6816;48.506;9.050;2022-10-19T13:22:23;4.95;;;3.30;;
13487;SDS011;6816;48.506;9.050;2022-10-19T13:25:29;4.88;;;3.55;;
13487;SDS011;6816;48.506;9.050;2022-10-19T13:28:35;4.32;;;3.92;;
13487;SDS011;6816;48.506;9.050;2022-10-19T13:31:36;6.15;;;4.93;;
13487;SDS011;6816;48.506;9.050;2022-10-19T13:34:37;12.65;;;7.07;;
13487;SDS011;6816;48.506;9.050;2022-10-19T13:37:38;14.63;;;10.00;;
13487;SDS011;6816;48.506;9.050;2022-10-19T13:41:00;12.07;;;8.77;;
13487;SDS011;6816;48.506;9.050;2022-10-19T13:44:17;10.52;;;8.60;;
13487;SDS011;6816;48.506;9.050;2022-10-19T13:47:23;13.20;;;8.25;;
13487;SDS011;6816;48.506;9.050;2022-10-19T13:50:38;9.32;;;7.07;;
13487;SDS011;6816;48.506;9.050;2022-10-19T14:00:50;6.15;;;4.95;;
13487;SDS011;6816;48.506;9.050;2022-10-19T14:04:21;5.63;;;4.78;;
13487;SDS011;6816;48.506;9.050;2022-10-19T14:08:02;6.85;;;5.85;;
13487;SDS011;6816;48.506;9.050;2022-10-19T14:11:18;8.23;;;6.43;;
13487;SDS011;6816;48.506;9.050;2022-10-19T14:14:26;7.78;;;6.00;;
13487;SDS011;6816;48.506;9.050;2022-10-19T14:17:30;7.53;;;5.60;;
13487;SDS011;6816;48.506;9.050;2022-10-19T14:20:35;7.95;;;6.60;;
13487;SDS011;6816;48.506;9.050;2022-10-19T14:23:38;7.72;;;6.40;;
13487;SDS011;6816;48.506;9.050;2022-10-19T14:26:39;8.32;;;7.18;;
13487;SDS011;6816;48.506;9.050;2022-10-19T14:29:47;10.48;;;7.68;;
13487;SDS011;6816;48.506;9.050;2022-10-19T14:32:49;8.07;;;7.28;;
13487;SDS011;6816;48.506;9.050;2022-10-19T14:35:51;7.72;;;6.85;;
13487;SDS011;6816;48.506;9.050;2022-10-19T14:38:54;7.93;;;7.13;;
13487;SDS011;6816;48.506;9.050;2022-10-19T14:41:55;8.45;;;7.57;;
13487;SDS011;6816;48.506;9.050;2022-10-19T14:44:56;9.13;;;8.18;;
13487;SDS011;6816;48.506;9.050;2022-10-19T14:48:02;8.20;;;7.40;;
13487;SDS011;6816;48.506;9.050;2022-10-19T14:54:38;8.52;;;6.57;;
13487;SDS011;6816;48.506;9.050;2022-10-19T14:57:41;7.00;;;6.38;;
13487;SDS011;6816;48.506;9.050;2022-10-19T15:00:45;9.38;;;6.85;;
13487;SDS011;6816;48.506;9.050;2022-10-19T15:03:47;8.20;;;7.45;;
13487;SDS011;6816;48.506;9.050;2022-10-19T15:06:49;8.25;;;7.50;;
13487;SDS011;6816;48.506;9.050;2022-10-19T15:09:51;9.95;;;7.78;;
13487;SDS011;6816;48.506;9.050;2022-10-19T15:12:56;8.98;;;8.15;;
13487;SDS011;6816;48.506;9.050;2022-10-19T15:16:01;7.57;;;6.78;;
13487;SDS011;6816;48.506;9.050;2022-10-19T15:19:09;7.50;;;6.38;;
13487;SDS011;6816;48.506;9.050;2022-10-19T15:22:35;7.00;;;6.25;;
13487;SDS011;6816;48.506;9.050;2022-10-19T15:25:39;7.13;;;6.45;;
13487;SDS011;6816;48.506;9.050;2022-10-19T15:28:39;8.30;;;7.50;;
13487;SDS011;6816;48.506;9.050;2022-10-19T15:31:40;8.77;;;7.88;;
13487;SDS011;6816;48.506;9.050;2022-10-19T15:34:41;6.75;;;6.15;;
13487;SDS011;6816;48.506;9.050;2022-10-19T15:37:46;6.75;;;6.10;;
13487;SDS011;6816;48.506;9.050;2022-10-19T15:40:48;7.38;;;6.65;;
13487;SDS011;6816;48.506;9.050;2022-10-19T15:43:59;7.05;;;6.35;;
13487;SDS011;6816;48.506;9.050;2022-10-19T15:50:30;6.60;;;6.05;;
13487;SDS011;6816;48.506;9.050;2022-10-19T15:53:37;7.03;;;6.40;;
13487;SDS011;6816;48.506;9.050;2022-10-19T15:56:38;6.53;;;6.00;;
13487;SDS011;6816;48.506;9.050;2022-10-19T15:59:39;7.65;;;7.00;;
13487;SDS011;6816;48.506;9.050;2022-10-19T16:02:39;7.65;;;6.80;;
13487;SDS011;6816;48.506;9.050;2022-10-19T16:05:40;8.47;;;6.93;;
13487;SDS011;6816;48.506;9.050;2022-10-19T16:08:41;7.63;;;7.03;;
13487;SDS011;6816;48.506;9.050;2022-10-19T16:11:45;8.80;;;6.65;;
13487;SDS011;6816;48.506;9.050;2022-10-19T16:14:46;7.15;;;6.50;;
13487;SDS011;6816;48.506;9.050;2022-10-19T16:17:51;7.70;;;6.95;;
13487;SDS011;6816;48.506;9.050;2022-10-19T16:20:53;7.53;;;6.82;;
13487;SDS011;6816;48.506;9.050;2022-10-19T16:23:54;7.43;;;6.50;;
13487;SDS011;6816;48.506;9.050;2022-10-19T16:26:54;7.30;;;6.70;;
13487;SDS011;6816;48.506;9.050;2022-10-19T16:29:55;7.60;;;6.85;;
13487;SDS011;6816;48.506;9.050;2022-10-19T16:32:55;7.95;;;7.07;;
13487;SDS011;6816;48.506;9.050;2022-10-19T16:35:56;7.32;;;6.63;;
13487;SDS011;6816;48.506;9.050;2022-10-19T16:38:58;6.25;;;5.57;;
13487;SDS011;6816;48.506;9.050;2022-10-19T16:41:59;6.88;;;5.65;;
13487;SDS011;6816;48.506;9.050;2022-10-19T16:45:00;7.97;;;5.80;;
13487;SDS011;6816;48.506;9.050;2022-10-19T16:48:01;7.83;;;5.57;;
13487;SDS011;6816;48.506;9.050;2022-10-19T16:54:06;5.60;;;4.67;;
13487;SDS011;6816;48.506;9.050;2022-10-19T16:57:08;4.90;;;4.47;;
13487;SDS011;6816;48.506;9.050;2022-10-19T17:00:09;5.07;;;4.57;;
13487;SDS011;6816;48.506;9.050;2022-10-19T17:03:10;4.97;;;4.57;;
13487;SDS011;6816;48.506;9.050;2022-10-19T17:06:11;5.57;;;5.07;;
13487;SDS011;6816;48.506;9.050;2022-10-19T17:09:13;5.67;;;5.17;;
13487;SDS011;6816;48.506;9.050;2022-10-19T17:12:13;6.70;;;6.10;;
13487;SDS011;6816;48.506;9.050;2022-10-19T17:15:14;6.57;;;5.97;;
13487;SDS011;6816;48.506;9.050;2022-10-19T17:18:15;6.37;;;5.87;;
13487;SDS011;6816;48.506;9.050;2022-10-19T17:21:20;7.20;;;6.07;;
13487;SDS011;6816;48.506;9.050;2022-10-19T17:24:22;6.80;;;6.17;;
13487;SDS011;6816;48.506;9.050;2022-10-19T17:27:23;5.80;;;5.20;;
13487;SDS011;6816;48.506;9.050;2022-10-19T17:30:24;7.83;;;5.27;;
13487;SDS011;6816;48.506;9.050;2022-10-19T17:33:25;6.10;;;5.50;;
13487;SDS011;6816;48.506;9.050;2022-10-19T17:36:27;7.20;;;6.53;;
13487;SDS011;6816;48.506;9.050;2022-10-19T17:39:29;6.70;;;6.03;;
13487;SDS011;6816;48.506;9.050;2022-10-19T17:42:31;7.33;;;6.63;;
13487;SDS011;6816;48.506;9.050;2022-10-19T17:45:35;6.85;;;6.25;;
13487;SDS011;6816;48.506;9.050;2022-10-19T17:48:36;7.23;;;6.57;;
13487;SDS011;6816;48.506;9.050;2022-10-19T17:51:38;6.83;;;6.23;;
13487;SDS011;6816;48.506;9.050;2022-10-19T17:54:39;6.28;;;5.68;;
13487;SDS011;6816;48.506;9.050;2022-10-19T17:57:40;8.73;;;6.57;;
13487;SDS011;6816;48.506;9.050;2022-10-19T18:00:40;6.33;;;5.83;;
13487;SDS011;6816;48.506;9.050;2022-10-19T18:03:41;8.57;;;7.27;;
13487;SDS011;6816;48.506;9.050;2022-10-19T18:06:42;8.23;;;6.90;;
13487;SDS011;6816;48.506;9.050;2022-10-19T18:09:42;8.57;;;7.77;;
13487;SDS011;6816;48.506;9.050;2022-10-19T18:12:43;8.07;;;7.27;;
13487;SDS011;6816;48.506;9.050;2022-10-19T18:15:44;10.07;;;8.23;;
13487;SDS011;6816;48.506;9.050;2022-10-19T18:18:45;10.63;;;9.63;;
13487;SDS011;6816;48.506;9.050;2022-10-19T18:21:50;14.50;;;11.90;;
13487;SDS011;6816;48.506;9.050;2022-10-19T18:24:51;13.93;;;10.83;;
13487;SDS011;6816;48.506;9.050;2022-10-19T18:27:51;13.27;;;11.67;;
13487;SDS011;6816;48.506;9.050;2022-10-19T18:30:52;12.43;;;11.17;;
13487;SDS011;6816;48.506;9.050;2022-10-19T18:33:54;11.50;;;10.40;;
13487;SDS011;6816;48.506;9.050;2022-10-19T18:36:59;11.37;;;9.97;;
13487;SDS011;6816;48.506;9.050;2022-10-19T18:40:00;11.90;;;10.73;;
13487;SDS011;6816;48.506;9.050;2022-10-19T18:43:01;10.73;;;9.63;;
13487;SDS011;6816;48.506;9.050;2022-10-19T18:46:01;13.03;;;9.30;;
13487;SDS011;6816;48.506;9.050;2022-10-19T18:49:03;12.53;;;9.77;;
13487;SDS011;6816;48.506;9.050;2022-10-19T18:52:05;10.27;;;9.33;;
13487;SDS011;6816;48.506;9.050;2022-10-19T18:55:06;10.17;;;9.17;;
13487;SDS011;6816;48.506;9.050;2022-10-19T18:58:07;10.00;;;9.03;;
13487;SDS011;6816;48.506;9.050;2022-10-19T19:04:09;9.63;;;8.73;;
13487;SDS011;6816;48.506;9.050;2022-10-19T19:07:10;9.30;;;8.40;;
13487;SDS011;6816;48.506;9.050;2022-10-19T19:10:10;8.80;;;8.00;;
13487;SDS011;6816;48.506;9.050;2022-10-19T19:13:13;8.80;;;7.90;;
13487;SDS011;6816;48.506;9.050;2022-10-19T19:16:14;7.70;;;7.00;;
13487;SDS011;6816;48.506;9.050;2022-10-19T19:19:15;8.80;;;6.97;;
13487;SDS011;6816;48.506;9.050;2022-10-19T19:22:17;7.40;;;6.70;;
13487;SDS011;6816;48.506;9.050;2022-10-19T19:25:18;6.57;;;5.97;;
13487;SDS011;6816;48.506;9.050;2022-10-19T19:28:18;7.17;;;6.47;;
13487;SDS011;6816;48.506;9.050;2022-10-19T19:31:19;7.47;;;6.77;;
13487;SDS011;6816;48.506;9.050;2022-10-19T19:34:20;7.43;;;6.73;;
13487;SDS011;6816;48.506;9.050;2022-10-19T19:37:20;7.83;;;7.03;;
13487;SDS011;6816;48.506;9.050;2022-10-19T19:40:21;8.77;;;7.60;;
13487;SDS011;6816;48.506;9.050;2022-10-19T19:43:22;8.57;;;7.50;;
13487;SDS011;6816;48.506;9.050;2022-10-19T19:46:23;8.10;;;7.33;;
13487;SDS011;6816;48.506;9.050;2022-10-19T19:49:24;10.00;;;8.83;;
13487;SDS011;6816;48.506;9.050;2022-10-19T19:52:25;9.60;;;8.60;;
13487;SDS011;6816;48.506;9.050;2022-10-19T19:55:26;11.30;;;8.67;;
13487;SDS011;6816;48.506;9.050;2022-10-19T19:58:27;7.77;;;6.97;;
13487;SDS011;6816;48.506;9.050;2022-10-19T20:01:28;8.50;;;7.70;;
13487;SDS011;6816;48.506;9.050;2022-10-19T20:04:29;7.53;;;6.73;;
13487;SDS011;6816;48.506;9.050;2022-10-19T20:07:30;9.27;;;6.97;;
13487;SDS011;6816;48.506;9.050;2022-10-19T20:10:30;8.67;;;7.33;;
13487;SDS011;6816;48.506;9.050;2022-10-19T20:13:31;7.83;;;7.07;;
13487;SDS011;6816;48.506;9.050;2022-10-19T20:16:32;9.27;;;7.10;;